Time;durP1;ratioP1;P1;durP2;ratioP2;P2;SDS_P1;SDS_P2;PMS_P1;PMS_P2;Temp;Humidity;BMP_temperature;BMP_pressure;BME280_temperature;BME280_humidity;BME280_pressure;Samples;Min_cycle;Max_cycle;Signal;HPM_P1;HPM_P2
2022/12/07 00:01:12;;;;;;;;;;;;;;;9.55;86.29;100039.78;5024608;28;19913;-69
2022/12/07 00:03:38;;;;;;;;;;;;;;;9.58;86.25;100044.78;5024323;28;19917;-76
2022/12/07 00:06:04;;;;;;;;;;;;;;;9.43;87.04;100048.91;5024686;28;19921;-69
2022/12/07 00:08:29;;;;;;;;;;;;;;;9.24;86.95;100048.97;5007289;28;19940;-68
2022/12/07 00:10:55;;;;;;;;;;;;;;;9.08;88.42;100049.59;5023993;28;19917;-76
2022/12/07 00:13:20;;;;;;;;;;;;;;;9.07;88.16;100041.81;5026102;28;19924;-69
2022/12/07 00:15:45;;;;;;;;;;;;;;;9.14;88.49;100049.00;5025227;28;19920;-75
2022/12/07 00:18:11;;;;;;;;;;;;;;;9.10;88.16;100047.63;5029325;28;19984;-76
2022/12/07 00:20:36;;;;;;;;;;;;;;;9.05;88.11;100043.75;5024016;28;19976;-75
2022/12/07 00:23:01;;;;;;;;;;;;;;;9.16;87.94;100046.22;5029605;28;19927;-69
2022/12/07 00:25:26;;;;;;;;;;;;;;;9.23;86.97;100042.84;5023897;28;19948;-69
2022/12/07 00:27:53;;;;;;;;;;;;;;;9.16;87.27;100046.22;5041438;28;19921;-69
2022/12/07 00:30:18;;;;;;;;;;;;;;;9.13;87.42;100046.50;5026940;28;19936;-69
2022/12/07 00:32:43;;;;;;;;;;;;;;;9.23;86.88;100049.94;5033148;28;19941;-76
2022/12/07 00:35:08;;;;;;;;;;;;;;;9.27;86.41;100051.31;5023865;28;20115;-69
2022/12/07 00:37:34;;;;;;;;;;;;;;;9.33;86.40;100057.81;5041589;28;19917;-76
2022/12/07 00:39:59;;;;;;;;;;;;;;;9.28;86.20;100055.63;5030948;28;19925;-69
2022/12/07 00:42:24;;;;;;;;;;;;;;;9.31;86.09;100050.03;5025314;28;19925;-68
2022/12/07 00:44:49;;;;;;;;;;;;;;;9.29;85.83;100046.72;5032949;28;19936;-69
2022/12/07 00:47:15;;;;;;;;;;;;;;;9.21;86.16;100039.53;5028159;28;19940;-75
2022/12/07 00:49:40;;;;;;;;;;;;;;;9.19;86.40;100038.84;5025084;28;19921;-75
2022/12/07 00:52:05;;;;;;;;;;;;;;;9.14;87.19;100042.88;5029012;28;19920;-68
2022/12/07 00:54:30;;;;;;;;;;;;;;;9.17;86.81;100043.44;5023521;28;19924;-75
2022/12/07 00:56:56;;;;;;;;;;;;;;;9.10;87.22;100041.50;5030790;28;19941;-69
2022/12/07 00:59:21;;;;;;;;;;;;;;;9.02;87.94;100046.69;5024908;28;20215;-76
2022/12/07 01:01:46;;;;;;;;;;;;;;;9.02;88.41;100034.31;5032694;28;19936;-69
2022/12/07 01:04:11;;;;;;;;;;;;;;;8.98;88.51;100043.50;5027050;28;19955;-76
2022/12/07 01:06:38;;;;;;;;;;;;;;;9.05;89.09;100044.59;5035650;28;19914;-76
2022/12/07 01:09:04;;;;;;;;;;;;;;;8.79;88.37;99999.50;5029936;28;19983;-70
2022/12/07 01:11:30;;;;;;;;;;;;;;;9.05;88.61;100036.66;5024275;28;19913;-75
2022/12/07 01:13:57;;;;;;;;;;;;;;;8.98;88.94;100034.75;5023564;28;20230;-75
2022/12/07 01:16:23;;;;;;;;;;;;;;;9.02;88.84;100039.59;5036220;28;20263;-69
2022/12/07 01:18:49;;;;;;;;;;;;;;;9.04;89.15;100027.09;5025246;28;19922;-69
2022/12/07 01:21:16;;;;;;;;;;;;;;;9.00;88.86;100035.44;5027968;28;19920;-71
2022/12/07 01:23:41;;;;;;;;;;;;;;;9.09;88.51;100029.28;5023988;28;19918;-69
2022/12/07 01:26:07;;;;;;;;;;;;;;;9.27;87.75;100035.47;5029606;28;19913;-68
2022/12/07 01:28:33;;;;;;;;;;;;;;;9.25;86.95;100019.75;5040976;28;20111;-69
2022/12/07 01:31:03;;;;;;;;;;;;;;;9.27;87.46;100020.44;5031620;28;19944;-75
2022/12/07 01:33:29;;;;;;;;;;;;;;;9.42;87.04;100015.53;5026254;28;19925;-76
2022/12/07 01:36:00;;;;;;;;;;;;;;;9.38;86.88;100014.16;5023869;28;19917;-76
2022/12/07 01:38:25;;;;;;;;;;;;;;;9.34;87.19;100012.75;5022903;28;20165;-69
2022/12/07 01:40:54;;;;;;;;;;;;;;;9.42;86.55;100007.59;5031908;28;19944;-75
2022/12/07 01:43:20;;;;;;;;;;;;;;;9.53;86.27;100007.38;5023027;28;19971;-74
2022/12/07 01:45:45;;;;;;;;;;;;;;;9.50;86.27;100004.22;5033640;28;19913;-68
2022/12/07 01:48:13;;;;;;;;;;;;;;;9.59;85.44;100004.16;5029173;28;20119;-69
2022/12/07 01:50:39;;;;;;;;;;;;;;;9.58;85.28;100004.28;5026584;28;20111;-75
2022/12/07 01:53:06;;;;;;;;;;;;;;;9.62;84.98;99999.53;5025879;28;19951;-76
2022/12/07 01:55:31;;;;;;;;;;;;;;;9.50;85.41;99996.28;5027156;28;20220;-69
2022/12/07 01:57:57;;;;;;;;;;;;;;;9.42;85.52;99993.53;5025280;28;19913;-69
2022/12/07 02:00:22;;;;;;;;;;;;;;;9.35;86.32;100005.66;5026850;28;19913;-75
2022/12/07 02:02:56;;;;;;;;;;;;;;;9.35;86.26;100005.66;5025804;28;19921;-70
2022/12/07 02:05:24;;;;;;;;;;;;;;;9.36;86.46;100002.03;5024899;28;20199;-75
2022/12/07 02:07:51;;;;;;;;;;;;;;;9.41;86.16;100002.44;5027658;28;20173;-68
2022/12/07 02:10:21;;;;;;;;;;;;;;;9.41;85.99;100002.44;5024460;28;19941;-76
2022/12/07 02:12:48;;;;;;;;;;;;;;;9.40;85.72;99996.34;5026409;28;19972;-74
2022/12/07 02:15:14;;;;;;;;;;;;;;;9.36;86.06;99992.28;5029348;28;19924;-75
2022/12/07 02:18:02;;;;;;;;;;;;;;;9.33;86.33;99994.41;5029342;28;19921;-69
2022/12/07 02:20:36;;;;;;;;;;;;;;;9.36;85.60;99994.09;5023569;28;19917;-68
2022/12/07 02:23:20;;;;;;;;;;;;;;;9.24;85.86;99990.84;5030637;28;19952;-76
2022/12/07 02:25:51;;;;;;;;;;;;;;;9.21;86.51;99988.50;5029906;28;20120;-69
2022/12/07 02:28:28;;;;;;;;;;;;;;;9.31;86.72;99978.69;5029495;28;20313;-75
2022/12/07 02:30:55;;;;;;;;;;;;;;;9.25;87.24;99982.75;5030320;28;19936;-76
2022/12/07 02:33:31;;;;;;;;;;;;;;;9.34;86.98;99975.75;5029542;28;19955;-69
2022/12/07 02:36:08;;;;;;;;;;;;;;;9.46;86.39;99973.75;5030562;28;20207;-69
2022/12/07 02:38:37;;;;;;;;;;;;;;;9.36;86.36;99976.44;5029957;28;19948;-76
2022/12/07 02:41:06;;;;;;;;;;;;;;;9.38;86.25;99966.59;5031350;28;19913;-69
2022/12/07 02:43:35;;;;;;;;;;;;;;;9.45;85.32;99967.66;5030703;28;19925;-76
2022/12/07 02:46:07;;;;;;;;;;;;;;;9.32;86.37;99968.97;5028194;28;20174;-69
2022/12/07 02:48:33;;;;;;;;;;;;;;;9.31;86.79;99976.06;5029557;28;19917;-69
2022/12/07 02:50:59;;;;;;;;;;;;;;;9.39;86.07;99972.69;5028831;28;19913;-69
2022/12/07 02:53:33;;;;;;;;;;;;;;;9.33;85.76;99970.63;5028791;28;20229;-75
2022/12/07 02:56:06;;;;;;;;;;;;;;;9.23;86.24;99963.59;5030082;28;19920;-74
2022/12/07 02:58:47;;;;;;;;;;;;;;;9.14;86.88;99961.00;5029065;28;19972;-73
2022/12/07 03:01:19;;;;;;;;;;;;;;;9.08;87.08;99957.13;5030876;28;19928;-66
2022/12/07 03:03:49;;;;;;;;;;;;;;;9.05;87.24;99962.72;5029257;28;19921;-69
2022/12/07 03:06:20;;;;;;;;;;;;;;;9.09;86.97;99952.69;5028811;28;19913;-69
2022/12/07 03:08:54;;;;;;;;;;;;;;;9.15;86.22;99955.56;5029388;28;19940;-70
2022/12/07 03:11:39;;;;;;;;;;;;;;;9.19;85.41;99953.47;5029277;28;19913;-76
2022/12/07 03:14:05;;;;;;;;;;;;;;;8.92;86.67;99949.84;4998212;28;19928;-76
2022/12/07 03:16:37;;;;;;;;;;;;;;;8.84;87.23;99960.31;5029314;28;20177;-69
2022/12/07 03:19:11;;;;;;;;;;;;;;;8.86;87.55;99963.63;5029945;28;20001;-72
2022/12/07 03:21:42;;;;;;;;;;;;;;;8.91;87.46;99950.81;5028888;28;19909;-68
2022/12/07 03:24:09;;;;;;;;;;;;;;;9.00;87.38;99958.84;5031086;28;19917;-76
2022/12/07 03:26:36;;;;;;;;;;;;;;;9.04;87.59;99965.50;5028804;28;19988;-76
2022/12/07 03:29:05;;;;;;;;;;;;;;;9.13;87.14;99959.34;5028350;28;19917;-69
2022/12/07 03:31:33;;;;;;;;;;;;;;;9.06;87.45;99963.53;5028993;28;19921;-69
2022/12/07 03:34:13;;;;;;;;;;;;;;;9.16;86.65;99953.75;5010872;28;20133;-75
2022/12/07 03:36:41;;;;;;;;;;;;;;;9.24;86.79;99953.84;5029067;28;19913;-75
2022/12/07 03:39:13;;;;;;;;;;;;;;;9.24;87.07;99967.06;5027380;28;20139;-76
2022/12/07 03:41:38;;;;;;;;;;;;;;;9.11;87.38;99959.47;5028950;28;19924;-76
2022/12/07 03:44:05;;;;;;;;;;;;;;;9.24;87.23;99965.25;5027713;28;19918;-69
2022/12/07 03:46:36;;;;;;;;;;;;;;;9.27;86.43;99967.59;5028322;28;19913;-70
2022/12/07 03:49:08;;;;;;;;;;;;;;;9.24;86.85;99972.34;5028633;28;19992;-69
2022/12/07 03:51:41;;;;;;;;;;;;;;;9.28;86.32;99961.31;5010689;28;19921;-69
2022/12/07 03:54:24;;;;;;;;;;;;;;;9.31;86.18;99965.47;5028113;28;19925;-76
2022/12/07 03:56:50;;;;;;;;;;;;;;;9.20;86.63;99969.16;5028497;28;19931;-69
2022/12/07 03:59:16;;;;;;;;;;;;;;;9.32;86.41;99963.66;5028228;28;20340;-69
2022/12/07 04:01:50;;;;;;;;;;;;;;;9.39;84.97;99965.59;5030671;28;19913;-68
2022/12/07 04:04:16;;;;;;;;;;;;;;;9.27;85.63;99954.38;5029244;28;19925;-69
2022/12/07 04:06:42;;;;;;;;;;;;;;;9.33;84.93;99945.03;5028510;28;20072;-76
2022/12/07 04:09:07;;;;;;;;;;;;;;;9.38;84.52;99941.97;5027704;28;19933;-69
2022/12/07 04:11:32;;;;;;;;;;;;;;;9.26;84.48;99950.06;5027209;28;19920;-76
2022/12/07 04:16:41;;;;;;;;;;;;;;;9.09;84.23;99940.31;5027190;28;19920;-76
2022/12/07 04:19:06;;;;;;;;;;;;;;;9.07;84.65;99939.63;5027572;28;20123;-75
2022/12/07 04:21:32;;;;;;;;;;;;;;;9.04;84.95;99945.19;5026778;28;19914;-69
2022/12/07 04:23:57;;;;;;;;;;;;;;;9.06;85.83;99955.63;5027628;28;19917;-69
2022/12/07 04:26:22;;;;;;;;;;;;;;;9.07;85.63;99944.91;5026852;28;19920;-75
2022/12/07 04:28:47;;;;;;;;;;;;;;;9.07;85.79;99949.34;5026087;28;19957;-69
2022/12/07 04:31:13;;;;;;;;;;;;;;;9.01;86.30;99940.22;5027981;28;20191;-69
2022/12/07 04:33:38;;;;;;;;;;;;;;;9.08;85.63;99940.44;5026839;28;19964;-73
2022/12/07 04:36:03;;;;;;;;;;;;;;;9.06;84.50;99939.78;5027654;28;19952;-75
2022/12/07 04:38:28;;;;;;;;;;;;;;;8.97;84.96;99949.41;5025834;28;19924;-76
2022/12/07 04:40:54;;;;;;;;;;;;;;;8.96;85.38;99948.56;5027183;28;20124;-75
2022/12/07 04:43:19;;;;;;;;;;;;;;;8.96;85.10;99938.00;5027240;28;19918;-75
2022/12/07 04:45:48;;;;;;;;;;;;;;;8.94;84.80;99945.25;5009982;28;19917;-76
2022/12/07 04:48:13;;;;;;;;;;;;;;;8.95;85.14;99946.91;5028649;28;19924;-76
2022/12/07 04:50:38;;;;;;;;;;;;;;;8.92;84.84;99941.94;5027118;28;19945;-75
2022/12/07 04:53:04;;;;;;;;;;;;;;;8.94;85.32;99947.06;5010869;28;19987;-68
2022/12/07 04:55:29;;;;;;;;;;;;;;;8.95;84.46;99944.28;5026438;28;20211;-75
2022/12/07 04:57:54;;;;;;;;;;;;;;;8.96;84.64;99938.00;5029854;28;19979;-76
2022/12/07 05:00:19;;;;;;;;;;;;;;;9.02;84.50;99949.78;5025731;28;19959;-77
2022/12/07 05:02:45;;;;;;;;;;;;;;;8.96;84.77;99953.03;5027660;28;20198;-68
2022/12/07 05:05:10;;;;;;;;;;;;;;;8.94;84.80;99955.81;5027144;28;19917;-69
2022/12/07 05:07:35;;;;;;;;;;;;;;;8.95;84.88;99949.56;5028033;28;19913;-73
2022/12/07 05:10:14;;;;;;;;;;;;;;;8.87;84.61;99954.72;5092859;28;19995;-74
2022/12/07 05:12:39;;;;;;;;;;;;;;;8.84;84.58;99954.19;5078151;28;19920;-74
2022/12/07 05:15:05;;;;;;;;;;;;;;;8.88;84.51;99950.28;5076273;28;19938;-74
2022/12/07 05:17:30;;;;;;;;;;;;;;;8.89;84.81;99946.66;5078268;28;19916;-67
2022/12/07 05:19:55;;;;;;;;;;;;;;;8.90;83.98;99956.25;5077123;28;19967;-67
2022/12/07 05:22:21;;;;;;;;;;;;;;;8.82;84.11;99951.69;5075988;28;19952;-67
2022/12/07 05:24:46;;;;;;;;;;;;;;;8.76;83.98;99951.44;5077829;28;20173;-75
2022/12/07 05:27:11;;;;;;;;;;;;;;;8.73;83.55;99955.22;5078300;28;19917;-68
2022/12/07 05:29:37;;;;;;;;;;;;;;;8.65;83.46;99949.81;5076751;28;19936;-67
2022/12/07 05:32:02;;;;;;;;;;;;;;;8.60;84.24;99949.44;5076970;28;19954;-74
2022/12/07 05:34:27;;;;;;;;;;;;;;;8.59;85.49;99951.22;5077974;28;19943;-67
2022/12/07 05:36:53;;;;;;;;;;;;;;;8.67;84.83;99953.16;5076651;28;20238;-73
2022/12/07 05:39:18;;;;;;;;;;;;;;;8.71;84.55;99954.53;5077020;28;19984;-74
2022/12/07 05:44:27;;;;;;;;;;;;;;;8.73;85.10;99967.59;5076913;28;19973;-74
2022/12/07 05:46:52;;;;;;;;;;;;;;;8.75;85.07;99958.53;5077949;28;20237;-68
2022/12/07 05:49:18;;;;;;;;;;;;;;;8.70;85.29;99957.31;5077169;28;20007;-68
2022/12/07 05:51:43;;;;;;;;;;;;;;;8.68;84.93;99951.34;5077691;28;20141;-67
2022/12/07 05:54:08;;;;;;;;;;;;;;;8.69;84.50;99950.38;5077012;28;20050;-67
2022/12/07 05:56:33;;;;;;;;;;;;;;;8.72;84.10;99952.72;5076440;28;19916;-67
2022/12/07 06:01:43;;;;;;;;;;;;;;;8.51;84.55;99964.31;5073800;28;19939;-67
2022/12/07 06:04:08;;;;;;;;;;;;;;;8.46;86.24;99960.44;5077179;28;19956;-68
2022/12/07 06:06:34;;;;;;;;;;;;;;;8.53;86.05;99961.53;5076861;28;19912;-74
2022/12/07 06:08:59;;;;;;;;;;;;;;;8.54;86.12;99955.28;5077680;28;19924;-67
2022/12/07 06:14:08;;;;;;;;;;;;;;;8.64;85.57;99964.00;5078042;28;19955;-67
2022/12/07 06:16:33;;;;;;;;;;;;;;;8.72;85.90;99963.28;5077951;28;19916;-67
2022/12/07 06:18:59;;;;;;;;;;;;;;;8.75;86.08;99963.00;5076767;28;20176;-74
2022/12/07 06:21:26;;;;;;;;;;;;;;;8.85;85.79;99964.59;5064928;28;20202;-74
2022/12/07 06:23:51;;;;;;;;;;;;;;;8.96;85.04;99974.97;5065581;28;19983;-74
2022/12/07 06:26:17;;;;;;;;;;;;;;;8.83;85.74;99971.00;5062760;28;19916;-74
2022/12/07 06:28:42;;;;;;;;;;;;;;;8.84;86.15;99970.03;5063056;28;19921;-74
2022/12/07 06:31:07;;;;;;;;;;;;;;;8.80;86.35;99966.84;5062392;28;19988;-67
2022/12/07 06:33:33;;;;;;;;;;;;;;;8.78;86.22;99966.16;5065568;28;19974;-74
2022/12/07 06:35:58;;;;;;;;;;;;;;;8.91;86.51;99971.13;5063272;28;19924;-67
2022/12/07 06:38:24;;;;;;;;;;;;;;;8.96;86.45;99972.34;5063854;28;20128;-67
2022/12/07 06:40:49;;;;;;;;;;;;;;;8.95;86.34;99972.50;5063531;28;20106;-67
2022/12/07 06:43:15;;;;;;;;;;;;;;;8.94;86.69;99979.59;5058003;28;19924;-74
2022/12/07 06:45:40;;;;;;;;;;;;;;;9.00;86.63;99974.69;5065044;28;19925;-69
2022/12/07 06:48:06;;;;;;;;;;;;;;;9.01;85.83;99981.63;5065199;28;19964;-74
2022/12/07 06:50:31;;;;;;;;;;;;;;;8.98;86.04;99982.75;5063989;28;20110;-67
2022/12/07 06:52:56;;;;;;;;;;;;;;;9.01;85.98;99984.28;5064313;28;19960;-67
2022/12/07 06:55:22;;;;;;;;;;;;;;;9.09;85.87;99976.47;5064401;28;19916;-74
2022/12/07 06:57:47;;;;;;;;;;;;;;;9.09;85.70;99979.94;5063692;28;19984;-74
2022/12/07 07:00:12;;;;;;;;;;;;;;;9.16;85.36;99970.44;5061582;28;20203;-67
2022/12/07 07:02:38;;;;;;;;;;;;;;;9.08;85.87;99974.78;5063320;28;19984;-67
2022/12/07 07:05:03;;;;;;;;;;;;;;;9.25;86.04;99972.19;5062302;28;20171;-67
2022/12/07 07:07:29;;;;;;;;;;;;;;;9.36;85.88;99960.59;5061225;28;19947;-74
2022/12/07 07:09:54;;;;;;;;;;;;;;;9.46;85.40;99971.13;5062559;28;19928;-74
2022/12/07 07:12:19;;;;;;;;;;;;;;;9.47;85.50;99975.44;5061391;28;19944;-74
2022/12/07 07:14:44;;;;;;;;;;;;;;;9.56;85.09;99975.38;5064022;28;19920;-73
2022/12/07 07:17:10;;;;;;;;;;;;;;;9.55;85.40;99957.84;5061573;28;19917;-67
2022/12/07 07:19:37;;;;;;;;;;;;;;;9.76;84.51;99964.63;5060492;28;20191;-67
2022/12/07 07:22:02;;;;;;;;;;;;;;;9.78;84.27;99970.59;5062057;28;19917;-74
2022/12/07 07:24:27;;;;;;;;;;;;;;;9.82;84.21;99972.78;5063340;28;19967;-67
2022/12/07 07:26:53;;;;;;;;;;;;;;;9.65;84.87;99972.78;5062417;28;19917;-70
2022/12/07 07:29:18;;;;;;;;;;;;;;;9.56;85.77;99972.72;5063270;28;19968;-68
2022/12/07 07:31:43;;;;;;;;;;;;;;;9.63;85.60;99972.13;5060304;28;19983;-67
2022/12/07 07:34:08;;;;;;;;;;;;;;;9.74;85.47;99975.38;5060879;28;19921;-73
2022/12/07 07:36:34;;;;;;;;;;;;;;;9.73;85.25;99970.22;5058919;28;19924;-67
2022/12/07 07:38:59;;;;;;;;;;;;;;;9.91;84.47;99973.69;5063710;28;21247;-68
2022/12/07 07:41:24;;;;;;;;;;;;;;;10.08;84.12;99983.44;5061026;28;19916;-72
2022/12/07 07:43:49;;;;;;;;;;;;;;;10.02;84.57;99981.41;5063095;28;19984;-67
2022/12/07 07:46:15;;;;;;;;;;;;;;;10.07;83.79;99986.22;5062929;28;20030;-67
2022/12/07 07:48:40;;;;;;;;;;;;;;;10.10;83.24;99983.28;5062025;28;19921;-69
2022/12/07 07:51:06;;;;;;;;;;;;;;;9.97;84.42;99985.50;5062658;28;19986;-67
2022/12/07 07:53:32;;;;;;;;;;;;;;;9.92;85.48;99986.78;5062859;28;19921;-73
2022/12/07 07:55:58;;;;;;;;;;;;;;;9.83;86.12;99985.03;5061563;28;19942;-67
2022/12/07 07:58:23;;;;;;;;;;;;;;;9.85;85.83;99983.06;5062752;28;19921;-69
2022/12/07 08:00:49;;;;;;;;;;;;;;;10.09;85.63;99987.75;5061558;28;19916;-75
2022/12/07 08:03:14;;;;;;;;;;;;;;;10.32;85.34;99988.13;5062067;28;20115;-68
2022/12/07 08:05:39;;;;;;;;;;;;;;;10.47;84.64;100002.47;5060665;28;19975;-75
2022/12/07 08:08:05;;;;;;;;;;;;;;;10.53;84.59;99999.22;5061783;28;21142;-67
2022/12/07 08:10:31;;;;;;;;;;;;;;;10.03;86.03;99992.81;5060368;28;19916;-74
2022/12/07 08:13:13;;;;;;;;;;;;;;;10.26;84.82;99988.72;5061614;28;19932;-74
2022/12/07 08:15:40;;;;;;;;;;;;;;;10.29;85.16;99992.88;5061486;28;19925;-68
2022/12/07 08:18:05;;;;;;;;;;;;;;;10.48;85.36;99984.78;5059949;28;19921;-67
2022/12/07 08:20:31;;;;;;;;;;;;;;;10.66;85.52;99997.97;5061379;28;20154;-74
2022/12/07 08:22:57;;;;;;;;;;;;;;;10.82;84.80;99996.25;5059158;28;19991;-68
2022/12/07 08:25:22;;;;;;;;;;;;;;;10.92;83.17;99996.13;5061288;28;20241;-74
2022/12/07 08:27:48;;;;;;;;;;;;;;;10.63;84.44;99985.88;5059877;28;20261;-74
2022/12/07 08:30:13;;;;;;;;;;;;;;;10.95;83.33;99987.88;5059558;28;20150;-67
2022/12/07 08:32:38;;;;;;;;;;;;;;;10.99;83.37;99991.84;5060672;28;20260;-74
2022/12/07 08:35:04;;;;;;;;;;;;;;;11.04;83.19;99989.56;5060582;28;19917;-67
2022/12/07 08:37:29;;;;;;;;;;;;;;;11.09;82.89;99991.72;5061594;28;19969;-68
2022/12/07 08:39:54;;;;;;;;;;;;;;;11.09;83.29;99984.59;5059816;28;19928;-75
2022/12/07 08:42:22;;;;;;;;;;;;;;;11.29;82.52;99985.19;5061597;28;20162;-67
2022/12/07 08:44:48;;;;;;;;;;;;;;;11.29;83.42;99985.19;5058385;28;19952;-74
2022/12/07 08:47:13;;;;;;;;;;;;;;;11.26;83.05;99982.03;5061400;28;19955;-75
2022/12/07 08:49:41;;;;;;;;;;;;;;;11.36;82.87;99970.28;5060328;28;19921;-74
2022/12/07 08:52:06;;;;;;;;;;;;;;;11.19;85.32;99969.41;5060916;28;19962;-74
2022/12/07 08:54:33;;;;;;;;;;;;;;;11.50;83.36;99964.41;5059382;28;19920;-74
2022/12/07 08:56:59;;;;;;;;;;;;;;;11.68;82.93;99963.44;5060041;28;19946;-74
2022/12/07 08:59:24;;;;;;;;;;;;;;;11.74;82.38;99954.81;5061564;28;19929;-75
2022/12/07 09:01:49;;;;;;;;;;;;;;;11.71;82.56;99945.34;5059782;28;19917;-75
2022/12/07 09:04:15;;;;;;;;;;;;;;;11.94;81.90;99947.38;5060531;28;19940;-67
2022/12/07 09:06:41;;;;;;;;;;;;;;;12.16;81.18;99949.38;5059543;28;19944;-74
2022/12/07 09:09:06;;;;;;;;;;;;;;;12.07;82.22;99942.41;5059387;28;20406;-75
2022/12/07 09:11:32;;;;;;;;;;;;;;;12.35;81.00;99946.38;5059974;28;19979;-74
2022/12/07 09:13:57;;;;;;;;;;;;;;;12.51;80.46;99936.75;5061381;28;19927;-75
2022/12/07 09:16:22;;;;;;;;;;;;;;;12.25;80.26;99940.41;5059688;28;19963;-75
2022/12/07 09:18:47;;;;;;;;;;;;;;;12.14;80.68;99930.97;5060966;28;19927;-75
2022/12/07 09:21:13;;;;;;;;;;;;;;;12.33;79.13;99929.78;5061808;28;19916;-68
2022/12/07 09:23:38;;;;;;;;;;;;;;;12.38;79.19;99918.66;5060510;28;19936;-68
2022/12/07 09:26:07;;;;;;;;;;;;;;;12.51;79.11;99915.50;5059891;28;19955;-74
2022/12/07 09:28:32;;;;;;;;;;;;;;;12.54;78.59;99917.81;5060456;28;20210;-74
2022/12/07 09:30:57;;;;;;;;;;;;;;;12.31;79.27;99907.88;5058852;28;19916;-68
2022/12/07 09:33:23;;;;;;;;;;;;;;;12.33;79.51;99910.34;5060886;28;20190;-68
2022/12/07 09:35:48;;;;;;;;;;;;;;;12.31;79.80;99905.22;5059409;28;19917;-74
2022/12/07 09:38:14;;;;;;;;;;;;;;;12.51;79.49;99897.72;5060691;28;20791;-68
2022/12/07 09:40:40;;;;;;;;;;;;;;;12.43;81.15;99889.75;5058945;28;19920;-74
2022/12/07 09:43:11;;;;;;;;;;;;;;;12.20;82.02;99894.94;5060546;28;19929;-74
2022/12/07 09:45:37;;;;;;;;;;;;;;;12.07;82.74;99897.28;5060293;28;20524;-68
2022/12/07 09:48:03;;;;;;;;;;;;;;;12.16;80.56;99890.97;5059367;28;20114;-69
2022/12/07 09:50:29;;;;;;;;;;;;;;;12.17;79.38;99891.81;5060172;28;19929;-74
2022/12/07 09:53:01;;;;;;;;;;;;;;;12.13;80.25;99881.53;5059704;28;19963;-67
2022/12/07 09:55:27;;;;;;;;;;;;;;;12.39;79.44;99875.97;5058859;28;20197;-75
2022/12/07 09:57:53;;;;;;;;;;;;;;;12.51;79.79;99876.47;5063673;28;19956;-68
2022/12/07 10:00:21;;;;;;;;;;;;;;;12.69;77.77;99874.41;5063032;28;19917;-67
2022/12/07 10:02:49;;;;;;;;;;;;;;;12.39;78.23;99872.50;5063324;28;19962;-67
2022/12/07 10:05:24;;;;;;;;;;;;;;;12.30;79.65;99874.34;5063892;28;19934;-68
2022/12/07 10:07:49;;;;;;;;;;;;;;;12.14;79.46;99871.72;5062307;28;19962;-74
2022/12/07 10:10:17;;;;;;;;;;;;;;;12.07;79.30;99876.06;5063295;28;19929;-74
2022/12/07 10:12:53;;;;;;;;;;;;;;;11.97;80.54;99872.75;5062983;28;19966;-68
2022/12/07 10:15:18;;;;;;;;;;;;;;;12.07;80.09;99868.09;5062295;28;19917;-68
2022/12/07 10:17:48;;;;;;;;;;;;;;;12.13;79.71;99864.78;5063953;28;19916;-67
2022/12/07 10:20:19;;;;;;;;;;;;;;;12.26;77.58;99858.94;5062924;28;19929;-74
2022/12/07 10:22:53;;;;;;;;;;;;;;;12.05;77.47;99856.81;5061873;28;20084;-75
2022/12/07 10:25:20;;;;;;;;;;;;;;;11.98;78.01;99855.84;5062397;28;19916;-75
2022/12/07 10:27:57;;;;;;;;;;;;;;;12.03;78.85;99848.19;5061983;28;20226;-67
2022/12/07 10:30:22;;;;;;;;;;;;;;;12.19;78.98;99837.53;5061630;28;19920;-73
2022/12/07 10:32:47;;;;;;;;;;;;;;;12.45;77.78;99835.47;5063423;28;20150;-68
2022/12/07 10:35:27;;;;;;;;;;;;;;;12.44;77.18;99835.63;5062219;28;19917;-68
2022/12/07 10:37:53;;;;;;;;;;;;;;;12.49;77.36;99830.66;5061948;28;19929;-68
2022/12/07 10:40:35;;;;;;;;;;;;;;;12.41;78.75;99828.00;5063860;28;19923;-67
2022/12/07 10:43:19;;;;;;;;;;;;;;;12.47;78.30;99828.16;5063758;28;19935;-68
2022/12/07 10:45:50;;;;;;;;;;;;;;;12.53;78.19;99831.16;5063421;28;19925;-68
2022/12/07 10:48:25;;;;;;;;;;;;;;;12.66;78.50;99829.59;5062163;28;20153;-74
2022/12/07 10:51:05;;;;;;;;;;;;;;;12.55;76.19;99835.28;5061863;28;19916;-68
2022/12/07 10:53:39;;;;;;;;;;;;;;;12.45;77.03;99845.25;5063542;28;19921;-74
2022/12/07 10:56:23;;;;;;;;;;;;;;;12.38;77.78;99838.97;5061959;28;20123;-68
2022/12/07 10:59:04;;;;;;;;;;;;;;;12.38;77.17;99834.50;5063250;28;20214;-68
2022/12/07 11:01:33;;;;;;;;;;;;;;;12.44;76.85;99830.31;5061797;28;20211;-67
2022/12/07 11:04:05;;;;;;;;;;;;;;;12.55;76.36;99829.97;5065446;28;19921;-75
2022/12/07 11:06:34;;;;;;;;;;;;;;;12.81;76.41;99826.19;5063386;28;19971;-68
2022/12/07 11:09:14;;;;;;;;;;;;;;;12.58;77.38;99813.69;5063802;28;19920;-68
2022/12/07 11:11:58;;;;;;;;;;;;;;;12.70;75.55;99812.31;5064540;28;19927;-67
2022/12/07 11:14:35;;;;;;;;;;;;;;;12.87;75.61;99813.03;5062949;28;19920;-68
2022/12/07 11:17:13;;;;;;;;;;;;;;;13.02;74.39;99807.81;5063859;28;19925;-68
2022/12/07 11:19:50;;;;;;;;;;;;;;;12.71;75.99;99802.50;5062711;28;19921;-74
2022/12/07 11:22:28;;;;;;;;;;;;;;;12.38;78.20;99805.28;5062686;28;19948;-74
2022/12/07 11:25:12;;;;;;;;;;;;;;;11.89;78.38;99807.25;5063967;28;19929;-67
2022/12/07 11:27:41;;;;;;;;;;;;;;;12.02;78.10;99796.13;5063396;28;19917;-74
2022/12/07 11:30:12;;;;;;;;;;;;;;;12.10;78.85;99791.63;5063535;28;19916;-68
2022/12/07 11:32:55;;;;;;;;;;;;;;;12.47;76.60;99783.00;5063396;28;19948;-74
2022/12/07 11:35:38;;;;;;;;;;;;;;;12.46;76.53;99780.53;5063455;28;20134;-74
2022/12/07 11:38:10;;;;;;;;;;;;;;;12.32;76.23;99779.44;5063917;28;19927;-75
2022/12/07 11:40:36;;;;;;;;;;;;;;;12.42;76.71;99777.38;5061964;28;19963;-69
2022/12/07 11:43:25;;;;;;;;;;;;;;;12.52;77.93;99771.91;5062201;28;20206;-67
2022/12/07 11:45:54;;;;;;;;;;;;;;;12.44;77.44;99774.56;5053240;28;20202;-74
2022/12/07 11:48:33;;;;;;;;;;;;;;;12.14;78.89;99765.56;5064569;28;19973;-67
2022/12/07 11:51:00;;;;;;;;;;;;;;;12.23;78.16;99774.31;5063328;28;19956;-74
2022/12/07 11:53:35;;;;;;;;;;;;;;;12.45;77.06;99761.09;5063353;28;19921;-68
2022/12/07 11:56:04;;;;;;;;;;;;;;;12.66;77.01;99768.50;5062953;28;19940;-74
2022/12/07 11:58:55;;;;;;;;;;;;;;;12.85;77.27;99761.06;5063270;28;19921;-74
2022/12/07 12:01:23;;;;;;;;;;;;;;;13.03;75.95;99761.63;5061847;28;20229;-74
2022/12/07 12:03:50;;;;;;;;;;;;;;;13.17;74.78;99757.38;5063076;28;20235;-74
2022/12/07 12:06:16;;;;;;;;;;;;;;;13.18;74.55;99753.72;5062906;28;19952;-74
2022/12/07 12:08:59;;;;;;;;;;;;;;;13.14;75.86;99755.06;5062684;28;19927;-68
2022/12/07 12:11:45;;;;;;;;;;;;;;;13.28;75.41;99746.31;5062947;28;19917;-75
2022/12/07 12:14:10;;;;;;;;;;;;;;;13.35;75.49;99736.63;5063352;28;19921;-68
2022/12/07 12:16:39;;;;;;;;;;;;;;;13.38;75.36;99745.06;5061568;28;19924;-68
2022/12/07 12:19:07;;;;;;;;;;;;;;;13.41;74.99;99742.03;5062282;28;19967;-70
2022/12/07 12:21:33;;;;;;;;;;;;;;;13.45;75.44;99734.53;5062817;28;19994;-67
2022/12/07 12:24:04;;;;;;;;;;;;;;;13.41;75.25;99743.88;5063008;28;19959;-74
2022/12/07 12:26:31;;;;;;;;;;;;;;;13.60;75.10;99747.88;5063418;28;20455;-75
2022/12/07 12:28:58;;;;;;;;;;;;;;;13.55;75.27;99745.78;5063484;28;19925;-74
2022/12/07 12:31:23;;;;;;;;;;;;;;;13.62;75.04;99741.38;5053729;28;19920;-68
2022/12/07 12:33:53;;;;;;;;;;;;;;;13.70;74.83;99738.63;5055255;28;20238;-66
2022/12/07 12:36:18;;;;;;;;;;;;;;;13.69;74.54;99744.13;5056993;28;19935;-72
2022/12/07 12:38:49;;;;;;;;;;;;;;;13.71;74.53;99736.81;5059581;28;20078;-73
2022/12/07 12:41:33;;;;;;;;;;;;;;;13.55;74.69;99734.31;5061296;28;19954;-72
2022/12/07 12:43:58;;;;;;;;;;;;;;;13.71;74.14;99732.31;5061608;28;19991;-68
2022/12/07 12:46:47;;;;;;;;;;;;;;;13.77;73.46;99724.59;5060240;28;19923;-72
2022/12/07 12:49:15;;;;;;;;;;;;;;;13.66;73.58;99723.22;5057568;28;19921;-66
2022/12/07 12:51:42;;;;;;;;;;;;;;;13.82;72.85;99719.56;5061685;28;20115;-72
2022/12/07 12:54:14;;;;;;;;;;;;;;;13.83;73.63;99721.22;5061015;28;19921;-73
2022/12/07 12:57:05;;;;;;;;;;;;;;;13.86;73.19;99721.66;5059432;28;20155;-72
2022/12/07 12:59:31;;;;;;;;;;;;;;;13.88;72.03;99719.66;5057789;28;20118;-67
2022/12/07 13:02:15;;;;;;;;;;;;;;;13.56;72.16;99720.00;5059657;28;20149;-65
2022/12/07 13:05:01;;;;;;;;;;;;;;;13.38;73.99;99721.13;5059235;28;19920;-66
2022/12/07 13:07:44;;;;;;;;;;;;;;;13.26;73.79;99721.75;5059652;28;19987;-66